createdAt,value
2023-09-23T00:00:14.011Z,100468.44
2023-09-23T00:02:45.454Z,100467.09
2023-09-23T00:05:17.802Z,100463.28
2023-09-23T00:07:47.133Z,100465.34
2023-09-23T00:10:16.153Z,100455.13
2023-09-23T00:12:46.757Z,100464.47
2023-09-23T00:15:17.482Z,100460.84
2023-09-23T00:17:48.227Z,100464.97
2023-09-23T00:20:17.597Z,100460.84
2023-09-23T00:22:47.833Z,100457.16
2023-09-23T00:25:19.974Z,100453.69
2023-09-23T00:27:50.841Z,100454.94
2023-09-23T00:30:20.929Z,100454.69
2023-09-23T00:32:50.163Z,100462.66
2023-09-23T00:35:20.413Z,100455.44
2023-09-23T00:37:51.308Z,100453.47
2023-09-23T00:40:28.897Z,100463.75
2023-09-23T00:42:59.967Z,100458.69
2023-09-23T00:45:30.786Z,100455.94
2023-09-23T00:48:00.792Z,100462.38
2023-09-23T00:50:31.688Z,100454.75
2023-09-23T00:53:01.787Z,100457.84
2023-09-23T00:55:32.321Z,100463.84
2023-09-23T00:58:02.960Z,100453.91
2023-09-23T01:00:33.218Z,100457.25
2023-09-23T01:03:02.629Z,100451.44
2023-09-23T01:05:32.155Z,100447.41
2023-09-23T01:08:12.664Z,100457.56
2023-09-23T01:10:41.938Z,100451.78
2023-09-23T01:13:13.133Z,100446.56
2023-09-23T01:15:42.707Z,100455.78
2023-09-23T01:18:20.117Z,100450.13
2023-09-23T01:20:51.538Z,100448.72
2023-09-23T01:23:23.292Z,100452.34
2023-09-23T01:25:52.471Z,100454.81
2023-09-23T01:28:21.753Z,100451.78
2023-09-23T01:30:51.279Z,100459.31
2023-09-23T01:33:20.517Z,100457.00
2023-09-23T01:35:49.930Z,100459.44
2023-09-23T01:38:19.100Z,100459.50
2023-09-23T01:40:50.348Z,100461.31
2023-09-23T01:43:19.487Z,100461.94
2023-09-23T01:45:48.662Z,100459.56
2023-09-23T01:48:19.056Z,100458.91
2023-09-23T01:50:50.597Z,100457.06
2023-09-23T01:53:22.845Z,100456.00
2023-09-23T01:55:55.136Z,100456.84
2023-09-23T01:58:25.841Z,100450.41
2023-09-23T02:00:57.150Z,100459.00
2023-09-23T02:03:27.057Z,100458.72
2023-09-23T02:05:56.341Z,100459.97
2023-09-23T02:08:25.687Z,100461.50
2023-09-23T02:10:56.233Z,100459.50
2023-09-23T02:13:25.628Z,100469.94
2023-09-23T02:15:56.722Z,100463.50
2023-09-23T02:18:29.541Z,100463.97
2023-09-23T02:20:58.976Z,100469.66
2023-09-23T02:23:28.479Z,100461.41
2023-09-23T02:26:02.397Z,100463.53
2023-09-23T02:28:31.563Z,100468.63
2023-09-23T02:31:01.055Z,100464.94
2023-09-23T02:33:31.342Z,100466.63
2023-09-23T02:36:03.841Z,100465.56
2023-09-23T02:38:32.913Z,100464.63
2023-09-23T02:41:05.401Z,100469.09
2023-09-23T02:43:34.819Z,100464.34
2023-09-23T02:46:04.449Z,100473.69
2023-09-23T02:48:34.404Z,100475.03
2023-09-23T02:51:05.861Z,100460.97
2023-09-23T02:53:36.352Z,100467.88
2023-09-23T02:56:08.655Z,100473.53
2023-09-23T02:58:39.737Z,100476.91
2023-09-23T03:01:15.661Z,100482.38
2023-09-23T03:03:45.126Z,100482.69
2023-09-23T03:06:16.451Z,100479.63
2023-09-23T03:08:49.448Z,100477.47
2023-09-23T03:11:20.486Z,100477.34
2023-09-23T03:13:51.202Z,100482.38
2023-09-23T03:16:29.865Z,100487.91
2023-09-23T03:19:12.337Z,100489.78
2023-09-23T03:21:44.139Z,100486.03
2023-09-23T03:24:14.680Z,100489.28
2023-09-23T03:26:48.237Z,100479.00
2023-09-23T03:29:19.530Z,100488.22
2023-09-23T03:31:49.806Z,100484.81
2023-09-23T03:34:19.221Z,100490.81
2023-09-23T03:36:48.867Z,100485.91
2023-09-23T03:39:20.717Z,100487.44
2023-09-23T03:41:51.533Z,100486.31
2023-09-23T03:44:20.753Z,100492.13
2023-09-23T03:46:51.814Z,100492.72
2023-09-23T03:49:23.297Z,100500.34
2023-09-23T03:51:53.830Z,100501.72
2023-09-23T03:54:24.608Z,100500.63
2023-09-23T03:56:56.087Z,100496.25
2023-09-23T03:59:25.320Z,100501.41
2023-09-23T04:01:54.926Z,100494.31
2023-09-23T04:04:24.725Z,100501.66
2023-09-23T04:06:53.753Z,100498.38
2023-09-23T04:09:24.362Z,100499.34
2023-09-23T04:11:55.091Z,100495.00
2023-09-23T04:14:25.630Z,100488.16
2023-09-23T04:16:54.712Z,100495.25
2023-09-23T04:19:24.609Z,100498.72
2023-09-23T04:21:53.716Z,100499.53
2023-09-23T04:24:22.922Z,100502.22
2023-09-23T04:26:54.940Z,100498.88
2023-09-23T04:29:26.592Z,100500.13
2023-09-23T04:31:55.703Z,100509.19
2023-09-23T04:34:25.739Z,100503.50
2023-09-23T04:36:56.970Z,100506.41
2023-09-23T04:39:26.456Z,100498.91
2023-09-23T04:41:55.509Z,100505.47
2023-09-23T04:44:26.171Z,100508.22
2023-09-23T04:46:55.333Z,100510.97
2023-09-23T04:49:24.630Z,100511.22
2023-09-23T04:51:54.727Z,100511.50
2023-09-23T04:54:23.951Z,100518.47
2023-09-23T04:56:52.997Z,100515.16
2023-09-23T04:59:22.217Z,100525.09
2023-09-23T05:01:53.207Z,100521.41
2023-09-23T05:04:22.753Z,100521.38
2023-09-23T05:06:52.173Z,100517.44
2023-09-23T05:09:21.844Z,100516.06
2023-09-23T05:11:53.237Z,100521.53
2023-09-23T05:14:22.686Z,100517.53
2023-09-23T05:16:53.293Z,100529.56
2023-09-23T05:19:23.211Z,100524.88
2023-09-23T05:21:52.443Z,100522.56
2023-09-23T05:24:21.740Z,100524.41
2023-09-23T05:26:51.111Z,100523.56
2023-09-23T05:29:20.145Z,100521.81
2023-09-23T05:31:49.815Z,100526.94
2023-09-23T05:34:20.657Z,100525.28
2023-09-23T05:36:50.274Z,100527.63
2023-09-23T05:39:20.995Z,100525.91
2023-09-23T05:41:50.671Z,100522.25
2023-09-23T05:44:21.014Z,100526.38
2023-09-23T05:46:50.776Z,100530.94
2023-09-23T05:49:21.278Z,100522.94
2023-09-23T05:51:53.965Z,100521.44
2023-09-23T05:54:24.154Z,100522.59
2023-09-23T05:56:53.333Z,100527.94
2023-09-23T05:59:23.079Z,100520.44
2023-09-23T06:01:52.748Z,100531.97
2023-09-23T06:04:23.644Z,100526.53
2023-09-23T06:06:52.866Z,100530.25
2023-09-23T06:09:22.074Z,100542.56
2023-09-23T06:11:51.383Z,100534.59
2023-09-23T06:14:20.620Z,100533.16
2023-09-23T06:16:50.285Z,100536.94
2023-09-23T06:19:19.598Z,100534.53
2023-09-23T06:21:50.562Z,100536.97
2023-09-23T06:24:19.726Z,100535.34
2023-09-23T06:26:49.162Z,100537.34
2023-09-23T06:29:18.235Z,100532.47
2023-09-23T06:31:47.665Z,100534.09
2023-09-23T06:34:18.358Z,100533.88
2023-09-23T06:36:47.638Z,100539.03
2023-09-23T06:39:18.308Z,100543.13
2023-09-23T06:41:48.315Z,100538.44
2023-09-23T06:44:17.605Z,100536.38
2023-09-23T06:46:46.958Z,100534.47
2023-09-23T06:49:16.115Z,100537.56
2023-09-23T06:51:45.420Z,100534.94
2023-09-23T06:54:14.747Z,100526.38
2023-09-23T06:56:46.279Z,100531.47
2023-09-23T06:59:15.599Z,100531.09
2023-09-23T07:01:45.011Z,100530.16
2023-09-23T07:04:14.771Z,100537.06
2023-09-23T07:06:44.089Z,100529.84
2023-09-23T07:09:14.207Z,100531.56
2023-09-23T07:11:44.840Z,100537.22
2023-09-23T07:14:14.305Z,100537.00
2023-09-23T07:16:44.474Z,100533.94
2023-09-23T07:19:13.624Z,100531.16
2023-09-23T07:21:42.692Z,100541.56
2023-09-23T07:24:13.813Z,100536.16
2023-09-23T07:26:45.665Z,100534.66
2023-09-23T07:29:14.995Z,100536.72
2023-09-23T07:31:44.131Z,100532.22
2023-09-23T07:34:14.565Z,100535.59
2023-09-23T07:36:44.674Z,100530.75
2023-09-23T07:39:14.140Z,100540.34
2023-09-23T07:41:44.989Z,100533.69
2023-09-23T07:44:14.105Z,100545.47
2023-09-23T07:46:44.075Z,100532.88
2023-09-23T07:49:16.458Z,100535.56
2023-09-23T07:51:45.844Z,100536.25
2023-09-23T07:54:15.128Z,100539.50
2023-09-23T07:56:46.212Z,100545.13
2023-09-23T07:59:15.514Z,100547.94
2023-09-23T08:01:44.875Z,100549.06
2023-09-23T08:04:14.299Z,100541.38
2023-09-23T08:06:43.805Z,100537.06
2023-09-23T08:09:16.319Z,100535.31
2023-09-23T08:11:47.526Z,100535.97
2023-09-23T08:14:17.332Z,100532.34
2023-09-23T08:16:47.397Z,100538.50
2023-09-23T08:19:17.961Z,100531.03
2023-09-23T08:21:48.068Z,100528.72
2023-09-23T08:24:17.547Z,100538.16
2023-09-23T08:26:48.262Z,100534.94
2023-09-23T08:29:17.385Z,100529.06
2023-09-23T08:31:46.717Z,100525.25
2023-09-23T08:34:21.223Z,100524.84
2023-09-23T08:36:50.506Z,100527.84
2023-09-23T08:39:19.750Z,100517.38
2023-09-23T08:41:53.957Z,100524.09
2023-09-23T08:44:24.370Z,100505.72
2023-09-23T08:46:55.350Z,100511.19
2023-09-23T08:49:26.611Z,100512.28
2023-09-23T08:51:58.221Z,100507.00
2023-09-23T08:54:30.341Z,100503.63
2023-09-23T08:57:01.116Z,100508.03
2023-09-23T08:59:30.430Z,100500.38
2023-09-23T09:01:59.975Z,100506.16
2023-09-23T09:04:29.238Z,100502.38
2023-09-23T09:06:58.875Z,100503.56
2023-09-23T09:09:28.284Z,100500.50
2023-09-23T09:12:00.286Z,100494.72
2023-09-23T09:14:31.240Z,100491.50
2023-09-23T09:17:00.547Z,100498.81
2023-09-23T09:19:30.154Z,100490.13
2023-09-23T09:22:00.341Z,100490.56
2023-09-23T09:24:30.082Z,100490.81
2023-09-23T09:26:59.447Z,100488.16
2023-09-23T09:29:29.966Z,100489.97
2023-09-23T09:32:02.539Z,100485.34
2023-09-23T09:34:34.317Z,100476.75
2023-09-23T09:37:05.882Z,100482.44
2023-09-23T09:39:39.020Z,100495.00
2023-09-23T09:42:09.131Z,100490.72
2023-09-23T09:44:39.591Z,100491.75
2023-09-23T09:47:11.403Z,100486.66
2023-09-23T09:49:42.816Z,100490.41
2023-09-23T09:52:14.598Z,100484.44
2023-09-23T09:54:44.275Z,100489.50
2023-09-23T09:57:14.490Z,100491.44
2023-09-23T09:59:44.626Z,100484.41
2023-09-23T10:02:16.439Z,100484.91
2023-09-23T10:04:52.867Z,100487.09
2023-09-23T10:07:23.631Z,100479.44
2023-09-23T10:09:56.990Z,100482.34
2023-09-23T10:12:32.565Z,100479.63
2023-09-23T10:15:03.259Z,100488.78
2023-09-23T10:17:39.431Z,100487.13
2023-09-23T10:20:18.927Z,100487.78
2023-09-23T10:22:54.391Z,100482.28
2023-09-23T10:25:24.007Z,100483.75
2023-09-23T10:28:00.880Z,100469.78
2023-09-23T10:30:33.380Z,100467.50
2023-09-23T10:33:07.543Z,100471.34
2023-09-23T10:35:40.323Z,100467.56
2023-09-23T10:38:09.701Z,100470.81
2023-09-23T10:40:39.756Z,100465.59
2023-09-23T10:43:09.693Z,100466.78
2023-09-23T10:45:39.365Z,100464.41
2023-09-23T10:48:10.763Z,100466.97
2023-09-23T10:50:41.329Z,100460.16
2023-09-23T10:53:10.834Z,100459.47
2023-09-23T10:55:41.231Z,100456.53
2023-09-23T10:58:10.962Z,100461.91
2023-09-23T11:00:41.470Z,100457.66
2023-09-23T11:03:18.807Z,100457.88
2023-09-23T11:05:50.249Z,100462.47
2023-09-23T11:08:20.795Z,100457.47
2023-09-23T11:10:51.054Z,100462.44
2023-09-23T11:13:20.937Z,100455.59
2023-09-23T11:15:50.492Z,100456.31
2023-09-23T11:18:21.349Z,100453.28
2023-09-23T11:20:50.800Z,100452.88
2023-09-23T11:23:20.202Z,100452.41
2023-09-23T11:25:49.500Z,100448.69
2023-09-23T11:28:21.041Z,100443.22
2023-09-23T11:30:52.062Z,100444.72
2023-09-23T11:33:23.604Z,100435.44
2023-09-23T11:35:53.485Z,100439.72
2023-09-23T11:38:23.199Z,100444.00
2023-09-23T11:40:52.749Z,100437.53
2023-09-23T11:43:21.957Z,100424.00
2023-09-23T11:45:51.268Z,100435.78
2023-09-23T11:48:21.631Z,100434.00
2023-09-23T11:50:52.599Z,100429.28
2023-09-23T11:53:21.846Z,100418.84
2023-09-23T11:55:53.628Z,100421.34
2023-09-23T11:58:22.811Z,100425.94
2023-09-23T12:00:58.066Z,100418.69
2023-09-23T12:03:28.403Z,100415.03
2023-09-23T12:06:02.867Z,100425.38
2023-09-23T12:08:32.054Z,100420.72
2023-09-23T12:11:03.537Z,100428.53
2023-09-23T12:13:33.852Z,100424.97
2023-09-23T12:16:03.076Z,100419.66
2023-09-23T12:18:32.579Z,100420.13
2023-09-23T12:21:03.250Z,100410.38
2023-09-23T12:23:37.445Z,100402.81
2023-09-23T12:26:07.297Z,100418.38
2023-09-23T12:28:36.581Z,100423.53
2023-09-23T12:31:06.393Z,100423.28
2023-09-23T12:33:35.989Z,100411.19
2023-09-23T12:36:06.972Z,100418.28
2023-09-23T12:38:36.290Z,100417.06
2023-09-23T12:41:07.866Z,100409.31
2023-09-23T12:43:37.077Z,100407.59
2023-09-23T12:46:06.394Z,100409.31
2023-09-23T12:48:35.622Z,100406.72
2023-09-23T12:51:06.207Z,100408.28
2023-09-23T12:53:35.365Z,100404.78
2023-09-23T12:56:05.456Z,100397.81
2023-09-23T12:58:34.739Z,100397.56
2023-09-23T13:01:04.242Z,100392.81
2023-09-23T13:03:34.385Z,100388.16
2023-09-23T13:06:03.811Z,100387.00
2023-09-23T13:08:34.684Z,100394.63
2023-09-23T13:11:03.997Z,100393.47
2023-09-23T13:13:33.650Z,100397.00
2023-09-23T13:16:03.489Z,100395.78
2023-09-23T13:18:32.913Z,100401.66
2023-09-23T13:21:02.205Z,100397.00
2023-09-23T13:23:31.553Z,100397.81
2023-09-23T13:26:03.575Z,100396.84
2023-09-23T13:28:32.787Z,100395.66
2023-09-23T13:31:03.596Z,100393.66
2023-09-23T13:33:32.925Z,100396.97
2023-09-23T13:36:02.110Z,100388.66
2023-09-23T13:38:31.660Z,100380.22
2023-09-23T13:41:02.678Z,100386.03
2023-09-23T13:43:31.811Z,100385.84
2023-09-23T13:46:01.389Z,100380.25
2023-09-23T13:48:30.620Z,100378.09
2023-09-23T13:51:00.268Z,100385.69
2023-09-23T13:53:29.593Z,100388.06
2023-09-23T13:55:58.909Z,100384.00
2023-09-23T13:58:29.565Z,100389.03
2023-09-23T14:00:58.972Z,100384.22
2023-09-23T14:03:28.305Z,100386.38
2023-09-23T14:05:57.669Z,100377.00
2023-09-23T14:08:27.322Z,100381.06
2023-09-23T14:10:57.351Z,100380.47
2023-09-23T14:13:26.650Z,100375.72
2023-09-23T14:15:57.444Z,100380.03
2023-09-23T14:18:26.595Z,100381.22
2023-09-23T14:20:56.531Z,100382.63
2023-09-23T14:23:25.888Z,100382.19
2023-09-23T14:25:54.973Z,100383.47
2023-09-23T14:28:24.265Z,100373.31
2023-09-23T14:30:53.726Z,100376.50
2023-09-23T14:33:24.745Z,100370.88
2023-09-23T14:35:55.017Z,100380.91
2023-09-23T14:38:24.958Z,100374.06
2023-09-23T14:40:55.679Z,100380.56
2023-09-23T14:43:24.915Z,100373.38
2023-09-23T14:45:54.057Z,100382.34
2023-09-23T14:48:25.035Z,100371.25
2023-09-23T14:50:54.498Z,100369.28
2023-09-23T14:53:24.407Z,100373.09
2023-09-23T14:55:53.975Z,100376.81
2023-09-23T14:58:23.197Z,100373.78
2023-09-23T15:00:53.258Z,100372.25
2023-09-23T15:03:28.059Z,100375.53
2023-09-23T15:05:57.550Z,100371.88
2023-09-23T15:08:27.050Z,100377.31
2023-09-23T15:10:56.570Z,100374.22
2023-09-23T15:13:25.796Z,100380.56
2023-09-23T15:15:55.050Z,100380.56
2023-09-23T15:18:25.862Z,100378.75
2023-09-23T15:20:58.089Z,100384.03
2023-09-23T15:23:27.592Z,100379.63
2023-09-23T15:25:57.035Z,100386.59
2023-09-23T15:28:26.667Z,100379.94
2023-09-23T15:30:57.907Z,100379.22
2023-09-23T15:33:29.023Z,100383.03
2023-09-23T15:35:58.678Z,100379.97
2023-09-23T15:38:28.065Z,100378.50
2023-09-23T15:40:58.272Z,100368.59
2023-09-23T15:43:27.798Z,100375.81
2023-09-23T15:46:03.082Z,100376.00
2023-09-23T15:48:37.183Z,100372.16
2023-09-23T15:51:11.353Z,100372.78
2023-09-23T15:53:49.501Z,100373.28
2023-09-23T15:56:19.220Z,100373.59
2023-09-23T15:58:50.642Z,100372.75
2023-09-23T16:01:20.677Z,100377.13
2023-09-23T16:03:52.369Z,100372.50
2023-09-23T16:06:22.589Z,100367.06
2023-09-23T16:08:52.370Z,100378.06
2023-09-23T16:11:22.249Z,100366.31
2023-09-23T16:13:55.117Z,100371.88
2023-09-23T16:16:25.391Z,100376.03
2023-09-23T16:18:57.096Z,100375.50
2023-09-23T16:21:27.109Z,100370.59
2023-09-23T16:23:56.612Z,100366.31
2023-09-23T16:26:26.500Z,100369.91
2023-09-23T16:28:56.572Z,100367.66
2023-09-23T16:31:26.346Z,100370.38
2023-09-23T16:34:07.412Z,100366.31
2023-09-23T16:36:42.566Z,100362.44
2023-09-23T16:39:13.122Z,100362.00
2023-09-23T16:41:43.833Z,100358.13
2023-09-23T16:44:15.256Z,100370.06
2023-09-23T16:46:46.535Z,100361.13
2023-09-23T16:49:17.855Z,100366.16
2023-09-23T16:51:47.704Z,100361.59
2023-09-23T16:54:18.086Z,100371.28
2023-09-23T16:56:47.749Z,100361.09
2023-09-23T16:59:20.104Z,100376.41
2023-09-23T17:01:53.114Z,100367.03
2023-09-23T17:04:25.036Z,100366.16
2023-09-23T17:07:00.227Z,100369.94
2023-09-23T17:09:30.101Z,100370.63
2023-09-23T17:11:59.734Z,100365.53
2023-09-23T17:14:30.533Z,100373.28
2023-09-23T17:17:00.354Z,100372.72
2023-09-23T17:19:31.638Z,100367.38
2023-09-23T17:22:05.233Z,100371.25
2023-09-23T17:24:35.448Z,100370.00
2023-09-23T17:27:05.715Z,100368.72
2023-09-23T17:29:37.381Z,100372.16
2023-09-23T17:32:07.716Z,100371.00
2023-09-23T17:34:42.146Z,100370.81
2023-09-23T17:37:12.406Z,100371.72
2023-09-23T17:39:42.030Z,100379.22
2023-09-23T17:42:14.844Z,100375.22
2023-09-23T17:44:46.916Z,100373.38
2023-09-23T17:47:16.915Z,100370.97
2023-09-23T17:49:48.519Z,100370.44
2023-09-23T17:52:18.919Z,100363.84
2023-09-23T17:54:50.275Z,100366.22
2023-09-23T17:57:20.116Z,100366.00
2023-09-23T17:59:52.394Z,100366.91
2023-09-23T18:02:24.710Z,100362.31
2023-09-23T18:04:56.111Z,100365.09
2023-09-23T18:07:25.970Z,100365.31
2023-09-23T18:09:58.430Z,100361.78
2023-09-23T18:12:28.290Z,100369.19
2023-09-23T18:14:58.574Z,100366.81
2023-09-23T18:17:29.165Z,100356.16
2023-09-23T18:20:04.333Z,100362.22
2023-09-23T18:22:34.118Z,100366.47
2023-09-23T18:25:04.279Z,100365.19
2023-09-23T18:27:35.063Z,100370.78
2023-09-23T18:30:05.769Z,100362.47
2023-09-23T18:32:35.389Z,100363.28
2023-09-23T18:35:07.576Z,100360.75
2023-09-23T18:37:36.898Z,100356.41
2023-09-23T18:40:08.264Z,100360.75
2023-09-23T18:42:37.748Z,100365.56
2023-09-23T18:45:08.647Z,100350.00
2023-09-23T18:47:38.961Z,100352.28
2023-09-23T18:50:10.983Z,100369.44
2023-09-23T18:52:40.252Z,100363.25
2023-09-23T18:55:10.911Z,100360.50
2023-09-23T18:57:40.383Z,100363.16
2023-09-23T19:00:11.586Z,100366.53
2023-09-23T19:02:41.438Z,100369.50
2023-09-23T19:05:12.400Z,100371.81
2023-09-23T19:07:41.797Z,100367.81
2023-09-23T19:10:13.937Z,100370.69
2023-09-23T19:12:43.037Z,100371.25
2023-09-23T19:15:17.038Z,100367.38
2023-09-23T19:17:46.560Z,100377.22
2023-09-23T19:20:18.221Z,100380.63
2023-09-23T19:22:48.488Z,100370.44
2023-09-23T19:25:18.551Z,100372.63
2023-09-23T19:27:49.435Z,100368.28
2023-09-23T19:30:19.344Z,100369.09
2023-09-23T19:32:51.069Z,100366.00
2023-09-23T19:35:22.083Z,100369.06
2023-09-23T19:37:51.434Z,100372.13
2023-09-23T19:40:22.034Z,100367.56
2023-09-23T19:42:51.746Z,100371.25
2023-09-23T19:45:21.111Z,100376.81
2023-09-23T19:47:50.563Z,100374.50
2023-09-23T19:50:19.923Z,100365.69
2023-09-23T19:52:50.580Z,100370.72
2023-09-23T19:55:20.645Z,100365.69
2023-09-23T19:57:49.857Z,100374.53
2023-09-23T20:00:20.338Z,100376.81
2023-09-23T20:02:49.787Z,100372.13
2023-09-23T20:05:19.068Z,100369.25
2023-09-23T20:07:49.549Z,100369.25
2023-09-23T20:10:19.035Z,100363.91
2023-09-23T20:12:48.430Z,100363.41
2023-09-23T20:15:19.211Z,100362.84
2023-09-23T20:17:48.933Z,100360.78
2023-09-23T20:20:18.772Z,100355.75
2023-09-23T20:22:49.320Z,100362.13
2023-09-23T20:25:20.072Z,100354.31
2023-09-23T20:27:49.314Z,100353.41
2023-09-23T20:30:18.988Z,100354.84
2023-09-23T20:32:48.226Z,100350.66
2023-09-23T20:35:17.491Z,100352.94
2023-09-23T20:37:46.802Z,100351.78
2023-09-23T20:40:17.795Z,100350.06
2023-09-23T20:42:48.938Z,100347.19
2023-09-23T20:45:18.896Z,100351.78
2023-09-23T20:47:48.279Z,100349.56
2023-09-23T20:50:17.444Z,100345.38
2023-09-23T20:52:46.502Z,100352.44
2023-09-23T20:55:16.907Z,100347.75
2023-09-23T20:57:46.160Z,100343.50
2023-09-23T21:00:16.548Z,100341.94
2023-09-23T21:02:45.783Z,100343.31
2023-09-23T21:05:15.266Z,100339.13
2023-09-23T21:07:44.604Z,100341.75
2023-09-23T21:10:13.714Z,100344.38
2023-09-23T21:12:44.469Z,100353.84
2023-09-23T21:15:16.560Z,100349.25
2023-09-23T21:17:46.087Z,100343.34
2023-09-23T21:20:16.884Z,100347.03
2023-09-23T21:22:46.963Z,100348.25
2023-09-23T21:25:16.063Z,100349.19
2023-09-23T21:27:47.087Z,100356.94
2023-09-23T21:30:17.660Z,100350.53
2023-09-23T21:32:46.870Z,100347.25
2023-09-23T21:35:16.865Z,100352.38
2023-09-23T21:37:45.975Z,100355.97
2023-09-23T21:40:15.113Z,100348.66
2023-09-23T21:42:44.181Z,100356.34
2023-09-23T21:45:14.829Z,100360.84
2023-09-23T21:47:44.131Z,100353.63
2023-09-23T21:50:13.346Z,100355.34
2023-09-23T21:52:42.423Z,100350.91
2023-09-23T21:55:12.107Z,100353.91
2023-09-23T21:57:41.338Z,100356.16
2023-09-23T22:00:27.194Z,100347.03
2023-09-23T22:02:59.717Z,100345.06
2023-09-23T22:05:31.882Z,100348.88
2023-09-23T22:08:05.058Z,100337.91
2023-09-23T22:10:34.803Z,100338.00
2023-09-23T22:13:04.673Z,100335.03
2023-09-23T22:15:33.912Z,100341.19
2023-09-23T22:18:04.917Z,100340.63
2023-09-23T22:20:34.266Z,100344.41
2023-09-23T22:23:03.570Z,100342.09
2023-09-23T22:25:34.828Z,100338.13
2023-09-23T22:28:04.211Z,100343.63
2023-09-23T22:30:37.113Z,100335.31
2023-09-23T22:33:08.182Z,100334.66
2023-09-23T22:35:37.979Z,100345.50
2023-09-23T22:38:07.097Z,100337.41
2023-09-23T22:40:36.225Z,100340.53
2023-09-23T22:43:07.027Z,100346.41
2023-09-23T22:45:39.215Z,100334.50
2023-09-23T22:48:10.682Z,100337.41
2023-09-23T22:50:41.800Z,100342.91
2023-09-23T22:53:11.411Z,100343.16
2023-09-23T22:55:40.592Z,100343.38
2023-09-23T22:58:09.652Z,100345.88
2023-09-23T23:00:40.174Z,100347.59
2023-09-23T23:03:14.377Z,100353.63
2023-09-23T23:05:44.371Z,100346.31
2023-09-23T23:08:13.728Z,100353.16
2023-09-23T23:10:42.735Z,100351.06
2023-09-23T23:13:11.789Z,100351.41
2023-09-23T23:15:42.071Z,100347.75
2023-09-23T23:18:13.245Z,100345.81
2023-09-23T23:20:42.452Z,100350.25
2023-09-23T23:23:11.505Z,100348.19
2023-09-23T23:25:41.222Z,100350.78
2023-09-23T23:28:10.997Z,100340.59
2023-09-23T23:30:42.237Z,100342.13
2023-09-23T23:33:13.652Z,100347.22
2023-09-23T23:35:42.791Z,100339.09
2023-09-23T23:38:16.028Z,100338.94
2023-09-23T23:40:45.378Z,100337.22
2023-09-23T23:43:14.588Z,100335.03
2023-09-23T23:45:44.030Z,100340.81
2023-09-23T23:48:14.566Z,100334.13
2023-09-23T23:50:44.342Z,100340.81
2023-09-23T23:53:13.635Z,100334.28
2023-09-23T23:55:42.618Z,100341.63
2023-09-23T23:58:14.091Z,100339.09
